createdAt,value
2018-01-21T00:00:33.537Z,86.98
2018-01-21T00:01:43.747Z,86.5
2018-01-21T00:02:53.887Z,86.79
2018-01-21T00:04:04.020Z,86.98
2018-01-21T00:05:14.166Z,86.98
2018-01-21T00:06:24.376Z,86.98
2018-01-21T00:07:34.556Z,86.98
2018-01-21T00:08:44.689Z,86.6
2018-01-21T00:09:54.828Z,86.69
2018-01-21T00:11:04.650Z,86.83
2018-01-21T00:12:14.787Z,86.83
2018-01-21T00:13:24.912Z,87.02
2018-01-21T00:14:35.111Z,87.12
2018-01-21T00:15:45.431Z,87.4
2018-01-21T00:16:55.586Z,87.02
2018-01-21T00:18:05.856Z,87.02
2018-01-21T00:19:15.981Z,87.12
2018-01-21T00:20:26.114Z,86.93
2018-01-21T00:21:36.280Z,87.31
2018-01-21T00:22:46.481Z,87.5
2018-01-21T00:23:56.620Z,87.88
2018-01-21T00:25:06.752Z,87.31
2018-01-21T00:26:16.876Z,87.69
2018-01-21T00:27:27.032Z,87.59
2018-01-21T00:28:37.183Z,87.78
2018-01-21T00:29:47.399Z,87.78
2018-01-21T00:30:57.688Z,87.98
2018-01-21T00:32:07.850Z,87.69
2018-01-21T00:33:18.170Z,88.17
2018-01-21T00:34:28.402Z,88.45
2018-01-21T00:35:38.533Z,88.07
2018-01-21T00:36:48.680Z,88.35
2018-01-21T00:37:58.800Z,87.98
2018-01-21T00:39:08.925Z,87.59
2018-01-21T00:40:19.100Z,87.78
2018-01-21T00:41:29.372Z,87.78
2018-01-21T00:42:39.545Z,87.88
2018-01-21T00:43:49.676Z,88.17
2018-01-21T00:44:59.869Z,88.17
2018-01-21T00:46:10.087Z,87.78
2018-01-21T00:47:19.943Z,88.17
2018-01-21T00:48:29.885Z,87.98
2018-01-21T00:49:40.043Z,88.07
2018-01-21T00:50:50.174Z,88.35
2018-01-21T00:52:00.285Z,88.07
2018-01-21T00:53:10.452Z,88.21
2018-01-21T00:54:20.743Z,88.11
2018-01-21T00:55:30.940Z,88.21
2018-01-21T00:56:41.082Z,88.21
2018-01-21T00:57:51.294Z,87.73
2018-01-21T00:59:01.183Z,87.83
2018-01-21T01:00:11.343Z,87.54
2018-01-21T01:01:21.281Z,87.35
2018-01-21T01:02:31.397Z,87.64
2018-01-21T01:03:41.514Z,87.59
2018-01-21T01:04:51.717Z,87.64
2018-01-21T01:06:01.884Z,88.02
2018-01-21T01:07:12.060Z,88.21
2018-01-21T01:08:22.291Z,88.17
2018-01-21T01:09:32.490Z,88.21
2018-01-21T01:10:42.728Z,87.73
2018-01-21T01:11:52.832Z,88.35
2018-01-21T01:13:02.929Z,88.3
2018-01-21T01:14:13.099Z,88.07
2018-01-21T01:15:23.214Z,88.35
2018-01-21T01:16:33.355Z,88.17
2018-01-21T01:17:43.546Z,88.07
2018-01-21T01:18:53.656Z,88.35
2018-01-21T01:20:03.812Z,88.82
2018-01-21T01:21:13.994Z,88.07
2018-01-21T01:22:24.103Z,88.4
2018-01-21T01:23:34.280Z,88.21
2018-01-21T01:24:43.900Z,88.21
2018-01-21T01:25:54.035Z,87.92
2018-01-21T01:27:04.166Z,87.92
2018-01-21T01:28:14.259Z,87.73
2018-01-21T01:29:24.402Z,87.64
2018-01-21T01:30:34.625Z,87.73
2018-01-21T01:31:44.823Z,87.64
2018-01-21T01:32:55.131Z,88.35
2018-01-21T01:34:05.374Z,88.4
2018-01-21T01:35:15.269Z,88.26
2018-01-21T01:36:25.384Z,88.3
2018-01-21T01:37:35.513Z,88.17
2018-01-21T01:38:45.680Z,88.17
2018-01-21T01:39:55.882Z,88.35
2018-01-21T01:41:06.036Z,88.07
2018-01-21T01:42:16.176Z,88.07
2018-01-21T01:43:26.387Z,87.88
2018-01-21T01:44:36.543Z,88.17
2018-01-21T01:45:46.709Z,88.35
2018-01-21T01:46:56.823Z,87.98
2018-01-21T01:48:06.997Z,88.82
2018-01-21T01:49:16.957Z,87.98
2018-01-21T01:50:27.104Z,88.17
2018-01-21T01:51:37.315Z,88.26
2018-01-21T01:52:47.240Z,88.64
2018-01-21T01:53:57.354Z,88.35
2018-01-21T01:55:07.488Z,88.73
2018-01-21T01:56:17.637Z,88.64
2018-01-21T01:57:27.884Z,88.64
2018-01-21T01:58:38.045Z,88.92
2018-01-21T01:59:47.986Z,88.82
2018-01-21T02:00:58.106Z,88.82
2018-01-21T02:02:08.274Z,88.17
2018-01-21T02:03:18.427Z,88.17
2018-01-21T02:04:28.609Z,88.54
2018-01-21T02:05:38.800Z,88.54
2018-01-21T02:06:48.990Z,88.82
2018-01-21T02:07:59.101Z,88.82
2018-01-21T02:09:09.245Z,88.82
2018-01-21T02:10:19.374Z,88.64
2018-01-21T02:11:29.540Z,88.64
2018-01-21T02:12:39.751Z,88.82
2018-01-21T02:13:49.904Z,89.01
2018-01-21T02:15:00.043Z,88.92
2018-01-21T02:16:10.424Z,89.01
2018-01-21T02:17:20.538Z,88.87
2018-01-21T02:18:30.903Z,89.01
2018-01-21T02:19:40.663Z,88.82
2018-01-21T02:20:50.583Z,88.64
2018-01-21T02:22:00.782Z,88.82
2018-01-21T02:23:10.909Z,88.64
2018-01-21T02:24:21.056Z,88.82
2018-01-21T02:25:31.204Z,88.82
2018-01-21T02:26:41.456Z,88.82
2018-01-21T02:27:51.639Z,88.82
2018-01-21T02:29:01.910Z,89.3
2018-01-21T02:30:12.104Z,88.92
2018-01-21T02:31:22.214Z,88.92
2018-01-21T02:32:32.348Z,88.92
2018-01-21T02:33:42.508Z,88.92
2018-01-21T02:34:52.609Z,89.2
2018-01-21T02:36:02.759Z,89.3
2018-01-21T02:37:12.914Z,89.11
2018-01-21T02:38:23.064Z,89.3
2018-01-21T02:39:33.178Z,89.2
2018-01-21T02:40:43.296Z,89.2
2018-01-21T02:41:53.434Z,89.11
2018-01-21T02:43:03.580Z,89.3
2018-01-21T02:44:13.811Z,89.01
2018-01-21T02:45:23.945Z,89.11
2018-01-21T02:46:34.156Z,89.11
2018-01-21T02:47:44.426Z,89.3
2018-01-21T02:48:54.566Z,89.11
2018-01-21T02:50:05.768Z,89.3
2018-01-21T02:51:16.870Z,89.68
2018-01-21T02:52:26.796Z,89.01
2018-01-21T02:53:36.961Z,89.15
2018-01-21T02:54:47.175Z,89.11
2018-01-21T02:55:57.323Z,89.06
2018-01-21T02:57:07.483Z,89.11
2018-01-21T02:58:17.628Z,88.96
2018-01-21T02:59:27.752Z,89.06
2018-01-21T03:00:37.885Z,88.87
2018-01-21T03:01:48.020Z,88.96
2018-01-21T03:02:58.167Z,88.87
2018-01-21T03:04:08.346Z,88.82
2018-01-21T03:05:18.474Z,89.3
2018-01-21T03:06:28.603Z,88.92
2018-01-21T03:07:38.715Z,88.92
2018-01-21T03:08:48.881Z,88.87
2018-01-21T03:09:59.019Z,89.25
2018-01-21T03:11:09.141Z,88.96
2018-01-21T03:12:19.033Z,88.87
2018-01-21T03:13:29.177Z,88.35
2018-01-21T03:14:39.292Z,88.92
2018-01-21T03:15:49.059Z,88.92
2018-01-21T03:16:59.149Z,89.39
2018-01-21T03:18:09.274Z,89.39
2018-01-21T03:19:19.517Z,89.11
2018-01-21T03:20:29.718Z,89.58
2018-01-21T03:21:39.596Z,89.3
2018-01-21T03:22:49.742Z,89.68
2018-01-21T03:23:59.529Z,89.68
2018-01-21T03:25:09.761Z,89.68
2018-01-21T03:26:19.880Z,89.68
2018-01-21T03:27:29.978Z,89.58
2018-01-21T03:28:40.117Z,89.58
2018-01-21T03:29:50.279Z,89.3
2018-01-21T03:31:00.377Z,89.68
2018-01-21T03:32:10.220Z,89.3
2018-01-21T03:33:20.355Z,89.77
2018-01-21T03:34:30.358Z,89.68
2018-01-21T03:35:40.483Z,89.87
2018-01-21T03:36:50.616Z,89.58
2018-01-21T03:38:00.739Z,89.87
2018-01-21T03:39:10.878Z,89.68
2018-01-21T03:40:21.013Z,90.06
2018-01-21T03:41:31.215Z,90.15
2018-01-21T03:42:41.341Z,89.87
2018-01-21T03:43:51.484Z,89.77
2018-01-21T03:45:01.619Z,89.77
2018-01-21T03:46:11.745Z,89.72
2018-01-21T03:47:21.879Z,89.68
2018-01-21T03:48:32.022Z,89.82
2018-01-21T03:49:42.260Z,89.25
2018-01-21T03:50:52.390Z,89.11
2018-01-21T03:52:02.631Z,89.39
2018-01-21T03:53:12.752Z,89.2
2018-01-21T03:54:22.864Z,89.58
2018-01-21T03:55:32.991Z,89.68
2018-01-21T03:56:43.128Z,89.58
2018-01-21T03:57:53.263Z,89.87
2018-01-21T03:59:03.438Z,89.68
2018-01-21T04:00:13.543Z,89.68
2018-01-21T04:01:23.668Z,90.15
2018-01-21T04:02:33.805Z,90.25
2018-01-21T04:03:43.978Z,90.15
2018-01-21T04:04:54.178Z,90.34
2018-01-21T04:06:04.187Z,90.25
2018-01-21T04:07:14.299Z,90.06
2018-01-21T04:08:24.445Z,90.53
2018-01-21T04:09:34.612Z,90.44
2018-01-21T04:10:44.812Z,90.06
2018-01-21T04:11:55.002Z,90.15
2018-01-21T04:13:05.196Z,90.72
2018-01-21T04:14:15.296Z,90.25
2018-01-21T04:15:25.434Z,90.72
2018-01-21T04:16:35.555Z,90.53
2018-01-21T04:17:45.403Z,90.06
2018-01-21T04:18:55.493Z,90.06
2018-01-21T04:20:05.594Z,90.06
2018-01-21T04:21:15.708Z,90.53
2018-01-21T04:22:25.865Z,90.15
2018-01-21T04:23:35.970Z,89.96
2018-01-21T04:24:46.072Z,89.58
2018-01-21T04:25:56.299Z,89.87
2018-01-21T04:27:06.152Z,90.06
2018-01-21T04:28:16.291Z,90.06
2018-01-21T04:29:26.411Z,89.77
2018-01-21T04:30:36.550Z,89.68
2018-01-21T04:31:46.813Z,89.68
2018-01-21T04:32:56.961Z,89.58
2018-01-21T04:34:07.060Z,90.25
2018-01-21T04:35:17.171Z,89.96
2018-01-21T04:36:27.289Z,90.15
2018-01-21T04:37:37.487Z,89.96
2018-01-21T04:38:47.787Z,90.06
2018-01-21T04:39:58.040Z,89.68
2018-01-21T04:41:08.215Z,90.06
2018-01-21T04:42:18.344Z,89.87
2018-01-21T04:43:28.573Z,89.87
2018-01-21T04:44:38.330Z,89.87
2018-01-21T04:45:48.543Z,89.87
2018-01-21T04:46:58.691Z,89.87
2018-01-21T04:48:08.878Z,89.49
2018-01-21T04:49:18.967Z,89.68
2018-01-21T04:50:29.091Z,89.49
2018-01-21T04:51:39.210Z,89.3
2018-01-21T04:52:49.437Z,89.49
2018-01-21T04:53:59.682Z,89.39
2018-01-21T04:55:09.880Z,89.68
2018-01-21T04:56:20.061Z,89.58
2018-01-21T04:57:30.190Z,89.68
2018-01-21T04:58:40.353Z,89.49
2018-01-21T04:59:50.499Z,89.39
2018-01-21T05:01:00.623Z,89.39
2018-01-21T05:02:10.831Z,89.68
2018-01-21T05:03:21.042Z,89.39
2018-01-21T05:04:30.927Z,89.49
2018-01-21T05:05:41.041Z,89.58
2018-01-21T05:06:51.132Z,89.58
2018-01-21T05:08:01.385Z,89.68
2018-01-21T05:09:11.583Z,89.49
2018-01-21T05:10:21.460Z,89.49
2018-01-21T05:11:31.601Z,89.68
2018-01-21T05:12:41.733Z,89.77
2018-01-21T05:13:51.842Z,89.49
2018-01-21T05:15:01.986Z,89.96
2018-01-21T05:16:12.080Z,89.96
2018-01-21T05:17:22.234Z,89.68
2018-01-21T05:18:31.981Z,89.68
2018-01-21T05:19:42.080Z,89.77
2018-01-21T05:20:52.297Z,89.58
2018-01-21T05:22:02.490Z,89.58
2018-01-21T05:23:12.617Z,89.49
2018-01-21T05:24:22.795Z,89.3
2018-01-21T05:25:32.910Z,89.96
2018-01-21T05:26:43.063Z,89.96
2018-01-21T05:27:52.913Z,90.06
2018-01-21T05:29:02.806Z,89.68
2018-01-21T05:30:12.897Z,89.96
2018-01-21T05:31:23.005Z,89.96
2018-01-21T05:32:33.107Z,89.87
2018-01-21T05:33:43.332Z,89.68
2018-01-21T05:34:53.448Z,90.06
2018-01-21T05:36:03.656Z,89.96
2018-01-21T05:37:13.759Z,89.96
2018-01-21T05:38:23.881Z,89.58
2018-01-21T05:39:34.076Z,90.15
2018-01-21T05:40:44.165Z,90.06
2018-01-21T05:41:55.281Z,89.96
2018-01-21T05:43:05.425Z,89.77
2018-01-21T05:44:15.548Z,89.87
2018-01-21T05:45:25.433Z,90.06
2018-01-21T05:46:35.542Z,89.87
2018-01-21T05:47:45.673Z,89.68
2018-01-21T05:48:56.092Z,90.15
2018-01-21T05:50:06.272Z,90.25
2018-01-21T05:51:16.393Z,89.87
2018-01-21T05:52:26.518Z,89.96
2018-01-21T05:53:36.625Z,90.06
2018-01-21T05:54:46.830Z,89.58
2018-01-21T05:55:57.013Z,90.06
2018-01-21T05:57:07.199Z,89.77
2018-01-21T05:58:17.336Z,89.72
2018-01-21T05:59:27.468Z,89.68
2018-01-21T06:00:37.590Z,89.68
2018-01-21T06:01:47.723Z,89.68
2018-01-21T06:02:57.971Z,89.77
2018-01-21T06:04:08.153Z,89.68
2018-01-21T06:05:18.317Z,89.68
2018-01-21T06:06:28.458Z,89.39
2018-01-21T06:07:38.639Z,89.3
2018-01-21T06:08:48.928Z,89.68
2018-01-21T06:09:59.080Z,89.68
2018-01-21T06:11:09.358Z,89.72
2018-01-21T06:12:19.457Z,89.82
2018-01-21T06:13:29.592Z,89.2
2018-01-21T06:14:39.740Z,89.58
2018-01-21T06:15:49.865Z,89.39
2018-01-21T06:17:01.013Z,89.87
2018-01-21T06:18:10.855Z,89.68
2018-01-21T06:19:20.990Z,89.68
2018-01-21T06:20:31.143Z,89.49
2018-01-21T06:21:41.366Z,89.3
2018-01-21T06:22:51.555Z,89.58
2018-01-21T06:24:01.815Z,89.68
2018-01-21T06:25:11.999Z,89.68
2018-01-21T06:26:22.155Z,89.49
2018-01-21T06:27:32.276Z,89.49
2018-01-21T06:28:42.383Z,89.39
2018-01-21T06:29:52.548Z,89.3
2018-01-21T06:31:02.703Z,89.49
2018-01-21T06:32:12.924Z,89.77
2018-01-21T06:33:23.117Z,89.68
2018-01-21T06:34:33.378Z,89.68
2018-01-21T06:35:43.524Z,89.39
2018-01-21T06:36:53.641Z,89.68
2018-01-21T06:38:03.759Z,89.49
2018-01-21T06:39:13.891Z,89.87
2018-01-21T06:40:24.064Z,89.77
2018-01-21T06:41:34.293Z,89.87
2018-01-21T06:42:44.539Z,90.15
2018-01-21T06:43:54.669Z,90.06
2018-01-21T06:45:04.529Z,89.87
2018-01-21T06:46:14.633Z,89.87
2018-01-21T06:47:24.792Z,90.06
2018-01-21T06:48:35.005Z,89.96
2018-01-21T06:49:45.242Z,90.15
2018-01-21T06:50:55.415Z,90.15
2018-01-21T06:52:05.330Z,89.77
2018-01-21T06:53:15.566Z,90.25
2018-01-21T06:54:25.804Z,90.25
2018-01-21T06:55:35.960Z,90.06
2018-01-21T06:56:45.820Z,90.06
2018-01-21T06:57:55.920Z,89.96
2018-01-21T06:59:06.036Z,90.06
2018-01-21T07:00:15.904Z,89.96
2018-01-21T07:01:26.125Z,89.44
2018-01-21T07:02:36.393Z,89.63
2018-01-21T07:03:46.564Z,89.68
2018-01-21T07:04:56.424Z,89.96
2018-01-21T07:06:06.573Z,89.68
2018-01-21T07:07:16.819Z,89.96
2018-01-21T07:08:26.946Z,89.96
2018-01-21T07:09:36.812Z,89.39
2018-01-21T07:10:46.923Z,89.49
2018-01-21T07:11:57.067Z,89.68
2018-01-21T07:13:07.337Z,89.96
2018-01-21T07:14:17.635Z,89.68
2018-01-21T07:15:27.814Z,89.87
2018-01-21T07:16:38.018Z,89.77
2018-01-21T07:17:48.163Z,89.49
2018-01-21T07:18:58.531Z,90.15
2018-01-21T07:20:08.686Z,89.87
2018-01-21T07:21:21.152Z,90.15
2018-01-21T07:22:33.420Z,90.15
2018-01-21T07:23:43.833Z,89.87
2018-01-21T07:24:54.000Z,89.68
2018-01-21T07:26:04.104Z,89.96
2018-01-21T07:27:14.323Z,89.68
2018-01-21T07:28:24.525Z,90.06
2018-01-21T07:29:34.930Z,89.77
2018-01-21T07:30:45.043Z,89.87
2018-01-21T07:31:55.203Z,89.87
2018-01-21T07:33:05.373Z,89.87
2018-01-21T07:34:15.463Z,89.96
2018-01-21T07:35:25.852Z,89.68
2018-01-21T07:36:35.990Z,89.3
2018-01-21T07:37:46.237Z,89.87
2018-01-21T07:38:56.269Z,89.87
2018-01-21T07:40:06.398Z,89.96
2018-01-21T07:41:16.536Z,89.96
2018-01-21T07:42:26.671Z,89.87
2018-01-21T07:43:36.814Z,89.87
2018-01-21T07:44:46.980Z,89.49
2018-01-21T07:45:57.139Z,90.06
2018-01-21T07:47:07.265Z,89.53
2018-01-21T07:48:17.391Z,89.68
2018-01-21T07:49:27.536Z,89.68
2018-01-21T07:50:37.716Z,89.25
2018-01-21T07:51:47.602Z,89.39
2018-01-21T07:52:57.761Z,89.49
2018-01-21T07:54:08.083Z,89.49
2018-01-21T07:55:18.237Z,89.3
2018-01-21T07:56:28.530Z,89.49
2018-01-21T07:57:38.702Z,89.49
2018-01-21T07:58:48.525Z,89.2
2018-01-21T07:59:58.655Z,89.68
2018-01-21T08:01:08.841Z,89.2
2018-01-21T08:02:19.016Z,89.3
2018-01-21T08:03:29.245Z,89.68
2018-01-21T08:04:39.426Z,89.44
2018-01-21T08:05:49.577Z,89.72
2018-01-21T08:06:59.713Z,89.15
2018-01-21T08:08:09.839Z,89.34
2018-01-21T08:09:20.011Z,89.06
2018-01-21T08:10:30.228Z,88.87
2018-01-21T08:11:40.452Z,88.96
2018-01-21T08:12:50.666Z,89.15
2018-01-21T08:14:00.838Z,88.59
2018-01-21T08:15:10.694Z,88.96
2018-01-21T08:16:21.142Z,88.68
2018-01-21T08:17:31.552Z,88.87
2018-01-21T08:18:41.688Z,88.68
2018-01-21T08:19:51.956Z,88.78
2018-01-21T08:21:02.152Z,88.96
2018-01-21T08:22:12.342Z,88.78
2018-01-21T08:23:22.608Z,88.87
2018-01-21T08:24:32.796Z,88.64
2018-01-21T08:25:42.987Z,88.87
2018-01-21T08:26:53.125Z,88.87
2018-01-21T08:28:03.375Z,89.01
2018-01-21T08:29:13.555Z,89.2
2018-01-21T08:30:23.969Z,89.25
2018-01-21T08:31:34.111Z,88.92
2018-01-21T08:32:44.423Z,88.96
2018-01-21T08:33:54.589Z,88.68
2018-01-21T08:35:04.844Z,88.87
2018-01-21T08:36:15.031Z,88.68
2018-01-21T08:37:25.195Z,88.64
2018-01-21T08:38:35.382Z,88.87
2018-01-21T08:39:45.591Z,88.64
2018-01-21T08:40:55.903Z,88.3
2018-01-21T08:42:06.200Z,88.68
2018-01-21T08:43:17.369Z,88.59
2018-01-21T08:44:27.532Z,88.49
2018-01-21T08:45:37.766Z,88.68
2018-01-21T08:46:47.656Z,89.06
2018-01-21T08:47:57.824Z,88.49
2018-01-21T08:49:07.963Z,88.21
2018-01-21T08:50:18.107Z,87.83
2018-01-21T08:51:28.241Z,88.3
2018-01-21T08:52:38.372Z,88.21
2018-01-21T08:53:48.524Z,87.73
2018-01-21T08:54:58.701Z,87.87
2018-01-21T08:56:08.864Z,87.12
2018-01-21T08:57:19.029Z,87.4
2018-01-21T08:58:29.182Z,87.12
2018-01-21T08:59:39.397Z,86.55
2018-01-21T09:00:49.307Z,86.93
2018-01-21T09:02:00.442Z,86.69
2018-01-21T09:03:10.307Z,86.69
2018-01-21T09:04:20.196Z,86.88
2018-01-21T09:05:30.366Z,86.98
2018-01-21T09:06:40.235Z,86.6
2018-01-21T09:07:50.420Z,86.79
2018-01-21T09:09:00.679Z,86.31
2018-01-21T09:10:10.838Z,86.79
2018-01-21T09:11:21.050Z,86.69
2018-01-21T09:12:31.361Z,86.79
2018-01-21T09:13:41.628Z,86.88
2018-01-21T09:14:51.513Z,87.16
2018-01-21T09:16:01.684Z,86.79
2018-01-21T09:17:11.836Z,87.64
2018-01-21T09:18:22.010Z,87.45
2018-01-21T09:19:31.926Z,87.54
2018-01-21T09:20:42.112Z,87.83
2018-01-21T09:21:52.308Z,87.83
2018-01-21T09:23:02.424Z,87.73
2018-01-21T09:24:12.350Z,88.3
2018-01-21T09:25:22.498Z,88.4
2018-01-21T09:26:32.662Z,87.54
2018-01-21T09:27:42.832Z,87.54
2018-01-21T09:28:53.014Z,87.26
2018-01-21T09:30:03.241Z,88.11
2018-01-21T09:31:13.497Z,88.02
2018-01-21T09:32:23.635Z,87.64
2018-01-21T09:33:33.945Z,87.73
2018-01-21T09:34:44.128Z,87.54
2018-01-21T09:35:54.420Z,88.02
2018-01-21T09:37:04.600Z,87.92
2018-01-21T09:38:14.749Z,88.3
2018-01-21T09:39:25.017Z,88.11
2018-01-21T09:40:35.224Z,88.02
2018-01-21T09:41:45.368Z,88.02
2018-01-21T09:42:55.553Z,88.21
2018-01-21T09:44:05.689Z,88.4
2018-01-21T09:45:15.864Z,88.02
2018-01-21T09:46:26.036Z,87.92
2018-01-21T09:47:36.254Z,88.02
2018-01-21T09:48:46.573Z,88.02
2018-01-21T09:49:56.765Z,88.02
2018-01-21T09:51:06.953Z,88.11
2018-01-21T09:52:17.136Z,88.3
2018-01-21T09:53:27.271Z,88.11
2018-01-21T09:54:38.406Z,87.83
2018-01-21T09:55:49.610Z,88.21
2018-01-21T09:56:59.820Z,88.3
2018-01-21T09:58:09.835Z,88.11
2018-01-21T09:59:20.065Z,88.11
2018-01-21T10:00:30.248Z,88.4
2018-01-21T10:01:39.924Z,88.87
2018-01-21T10:02:50.119Z,88.87
2018-01-21T10:04:00.331Z,88.82
2018-01-21T10:05:10.507Z,89.06
2018-01-21T10:06:20.673Z,88.68
2018-01-21T10:07:30.830Z,88.68
2018-01-21T10:08:41.189Z,88.96
2018-01-21T10:09:51.397Z,89.15
2018-01-21T10:11:01.636Z,89.34
2018-01-21T10:12:11.801Z,89.15
2018-01-21T10:13:22.037Z,89.15
2018-01-21T10:14:32.242Z,89.72
2018-01-21T10:15:42.386Z,89.72
2018-01-21T10:16:52.540Z,88.96
2018-01-21T10:18:02.492Z,89.25
2018-01-21T10:19:12.712Z,89.72
2018-01-21T10:20:22.868Z,89.53
2018-01-21T10:21:33.167Z,89.44
2018-01-21T10:22:43.382Z,89.53
2018-01-21T10:23:53.568Z,89.53
2018-01-21T10:25:04.746Z,89.53
2018-01-21T10:26:14.918Z,89.53
2018-01-21T10:27:25.171Z,89.44
2018-01-21T10:28:35.389Z,89.53
2018-01-21T10:29:45.560Z,89.63
2018-01-21T10:30:55.846Z,89.15
2018-01-21T10:32:06.046Z,89.44
2018-01-21T10:33:16.362Z,89.34
2018-01-21T10:34:26.649Z,89.15
2018-01-21T10:35:37.318Z,89.34
2018-01-21T10:36:47.501Z,89.34
2018-01-21T10:37:57.655Z,89.44
2018-01-21T10:39:07.797Z,89.72
2018-01-21T10:40:18.142Z,89.53
2018-01-21T10:41:28.386Z,89.91
2018-01-21T10:42:38.552Z,89.53
2018-01-21T10:43:48.462Z,89.63
2018-01-21T10:44:58.601Z,89.72
2018-01-21T10:46:08.781Z,89.82
2018-01-21T10:47:19.047Z,89.72
2018-01-21T10:48:29.269Z,89.34
2018-01-21T10:49:39.438Z,88.68
2018-01-21T10:50:49.597Z,89.06
2018-01-21T10:51:59.762Z,88.78
2018-01-21T10:53:10.987Z,89.06
2018-01-21T10:54:21.200Z,88.59
2018-01-21T10:55:31.389Z,88.87
2018-01-21T10:56:41.697Z,88.87
2018-01-21T10:57:51.965Z,88.78
2018-01-21T10:59:02.194Z,88.59
2018-01-21T11:00:12.369Z,88.96
2018-01-21T11:01:22.646Z,89.06
2018-01-21T11:02:32.960Z,89.15
2018-01-21T11:03:43.136Z,89.06
2018-01-21T11:04:54.274Z,89.06
2018-01-21T11:06:04.589Z,88.59
2018-01-21T11:07:14.701Z,89.06
2018-01-21T11:08:24.911Z,88.96
2018-01-21T11:09:35.162Z,88.68
2018-01-21T11:10:45.402Z,88.59
2018-01-21T11:11:55.612Z,88.96
2018-01-21T11:13:05.878Z,88.96
2018-01-21T11:14:16.057Z,88.78
2018-01-21T11:15:26.265Z,88.68
2018-01-21T11:16:36.497Z,88.59
2018-01-21T11:17:46.751Z,88.68
2018-01-21T11:18:56.938Z,88.68
2018-01-21T11:20:08.146Z,88.4
2018-01-21T11:21:18.400Z,88.68
2018-01-21T11:22:28.570Z,88.49
2018-01-21T11:23:38.754Z,88.87
2018-01-21T11:24:48.974Z,89.06
2018-01-21T11:25:59.196Z,88.3
2018-01-21T11:27:09.444Z,88.73
2018-01-21T11:28:19.784Z,88.63
2018-01-21T11:29:30.033Z,88.73
2018-01-21T11:30:40.391Z,88.54
2018-01-21T11:31:50.719Z,88.73
2018-01-21T11:33:00.986Z,88.63
2018-01-21T11:34:11.246Z,88.92
2018-01-21T11:35:21.449Z,88.44
2018-01-21T11:36:31.713Z,87.97
2018-01-21T11:37:42.928Z,88.25
2018-01-21T11:38:53.065Z,87.97
2018-01-21T11:40:03.353Z,88.16
2018-01-21T11:41:13.540Z,87.87
2018-01-21T11:42:24.754Z,88.16
2018-01-21T11:43:34.940Z,88.06
2018-01-21T11:44:45.254Z,87.97
2018-01-21T11:45:55.444Z,87.77
2018-01-21T11:47:05.637Z,88.06
2018-01-21T11:48:18.758Z,88.06
2018-01-21T11:49:28.955Z,87.77
2018-01-21T11:50:39.197Z,87.97
2018-01-21T11:51:49.415Z,88.25
2018-01-21T11:52:59.739Z,87.87
2018-01-21T11:54:09.955Z,87.97
2018-01-21T11:55:20.150Z,88.25
2018-01-21T11:56:30.457Z,88.92
2018-01-21T11:57:40.648Z,88.82
2018-01-21T11:58:50.835Z,88.92
2018-01-21T12:00:00.998Z,88.92
2018-01-21T12:01:11.012Z,88.16
2018-01-21T12:02:21.225Z,88.16
2018-01-21T12:03:31.143Z,88.16
2018-01-21T12:04:41.356Z,88.25
2018-01-21T12:05:51.832Z,87.97
2018-01-21T12:07:01.966Z,87.97
2018-01-21T12:08:12.151Z,88.06
2018-01-21T12:09:22.350Z,88.63
2018-01-21T12:10:32.625Z,88.4
2018-01-21T12:11:42.622Z,88.96
2018-01-21T12:12:52.912Z,88.68
2018-01-21T12:14:03.248Z,88.59
2018-01-21T12:15:13.401Z,88.44
2018-01-21T12:16:23.627Z,88.87
2018-01-21T12:17:34.004Z,89.25
2018-01-21T12:18:44.204Z,89.06
2018-01-21T12:19:54.369Z,89.06
2018-01-21T12:21:04.624Z,89.29
2018-01-21T12:22:14.849Z,89.29
2018-01-21T12:23:25.064Z,88.92
2018-01-21T12:24:35.267Z,89.29
2018-01-21T12:25:45.505Z,89.29
2018-01-21T12:26:55.741Z,89.2
2018-01-21T12:28:06.034Z,89.39
2018-01-21T12:29:17.175Z,89.01
2018-01-21T12:30:27.415Z,88.92
2018-01-21T12:31:37.615Z,88.54
2018-01-21T12:32:47.820Z,88.82
2018-01-21T12:33:58.083Z,89.01
2018-01-21T12:35:08.425Z,88.82
2018-01-21T12:36:18.666Z,88.92
2018-01-21T12:37:28.900Z,88.82
2018-01-21T12:38:39.100Z,88.63
2018-01-21T12:39:49.284Z,88.73
2018-01-21T12:40:59.465Z,88.92
2018-01-21T12:42:09.671Z,89.01
2018-01-21T12:43:19.869Z,88.73
2018-01-21T12:44:30.098Z,88.82
2018-01-21T12:45:40.332Z,89.01
2018-01-21T12:46:51.483Z,88.82
2018-01-21T12:48:01.741Z,88.54
2018-01-21T12:49:11.976Z,88.44
2018-01-21T12:50:22.162Z,88.16
2018-01-21T12:51:32.337Z,87.77
2018-01-21T12:52:42.568Z,88.54
2018-01-21T12:53:52.798Z,88.06
2018-01-21T12:55:03.028Z,88.25
2018-01-21T12:56:13.192Z,88.16
2018-01-21T12:57:23.410Z,88.25
2018-01-21T12:58:33.651Z,88.16
2018-01-21T12:59:43.854Z,88.06
2018-01-21T13:00:54.023Z,88.25
2018-01-21T13:02:04.368Z,88.35
2018-01-21T13:03:14.552Z,88.16
2018-01-21T13:04:24.851Z,88.35
2018-01-21T13:05:35.120Z,88.82
2018-01-21T13:06:45.372Z,88.92
2018-01-21T13:07:55.784Z,88.92
2018-01-21T13:09:06.002Z,88.92
2018-01-21T13:10:16.229Z,88.73
2018-01-21T13:11:26.485Z,88.92
2018-01-21T13:12:36.716Z,89.11
2018-01-21T13:13:46.956Z,88.73
2018-01-21T13:14:57.176Z,89.39
2018-01-21T13:16:07.142Z,89.01
2018-01-21T13:17:17.420Z,89.01
2018-01-21T13:18:27.664Z,89.01
2018-01-21T13:19:38.040Z,89.01
2018-01-21T13:20:48.376Z,89.29
2018-01-21T13:21:58.565Z,89.01
2018-01-21T13:23:08.884Z,89.48
2018-01-21T13:24:19.124Z,89.39
2018-01-21T13:25:29.335Z,89.39
2018-01-21T13:26:39.549Z,89.2
2018-01-21T13:27:49.740Z,89.11
2018-01-21T13:28:59.954Z,89.29
2018-01-21T13:30:10.142Z,89.01
2018-01-21T13:31:20.325Z,89.29
2018-01-21T13:32:30.596Z,89.39
2018-01-21T13:33:40.859Z,89.11
2018-01-21T13:34:51.071Z,89.01
2018-01-21T13:36:01.337Z,89.01
2018-01-21T13:37:11.548Z,88.82
2018-01-21T13:38:21.769Z,88.82
2018-01-21T13:39:31.977Z,89.11
2018-01-21T13:40:42.176Z,88.92
2018-01-21T13:41:52.387Z,89.11
2018-01-21T13:43:02.582Z,88.63
2018-01-21T13:44:12.879Z,89.11
2018-01-21T13:45:23.121Z,89.2
2018-01-21T13:46:33.415Z,88.92
2018-01-21T13:48:15.540Z,89.01
2018-01-21T13:49:25.849Z,88.73
2018-01-21T13:50:36.064Z,88.82
2018-01-21T13:51:46.259Z,88.82
2018-01-21T13:52:57.818Z,89.01
2018-01-21T13:54:08.087Z,88.82
2018-01-21T13:55:18.345Z,88.63
2018-01-21T13:56:28.294Z,88.92
2018-01-21T13:57:38.489Z,88.92
2018-01-21T13:58:48.642Z,88.92
2018-01-21T13:59:58.893Z,88.92
2018-01-21T14:01:09.072Z,88.92
2018-01-21T14:02:19.302Z,89.11
2018-01-21T14:03:29.556Z,88.82
2018-01-21T14:04:39.624Z,89.58
2018-01-21T14:05:49.950Z,89.29
2018-01-21T14:07:00.241Z,89.2
2018-01-21T14:08:10.454Z,89.01
2018-01-21T14:09:20.739Z,89.58
2018-01-21T14:10:31.039Z,89.67
2018-01-21T14:11:41.347Z,89.77
2018-01-21T14:12:51.623Z,89.48
2018-01-21T14:14:01.863Z,89.29
2018-01-21T14:15:12.168Z,89.48
2018-01-21T14:16:22.565Z,89.39
2018-01-21T14:17:32.841Z,89.48
2018-01-21T14:18:43.201Z,89.39
2018-01-21T14:19:53.510Z,89.77
2018-01-21T14:21:03.768Z,89.11
2018-01-21T14:22:13.971Z,88.92
2018-01-21T14:23:24.205Z,88.92
2018-01-21T14:24:35.313Z,89.01
2018-01-21T14:25:45.583Z,89.01
2018-01-21T14:26:55.808Z,89.11
2018-01-21T14:28:06.142Z,89.01
2018-01-21T14:29:16.355Z,89.01
2018-01-21T14:30:26.605Z,89.2
2018-01-21T14:31:36.864Z,89.48
2018-01-21T14:32:47.103Z,89.48
2018-01-21T14:33:57.577Z,89.48
2018-01-21T14:35:07.910Z,89.2
2018-01-21T14:36:18.106Z,89.11
2018-01-21T14:37:28.302Z,89.11
2018-01-21T14:38:38.509Z,89.39
2018-01-21T14:39:49.880Z,88.92
2018-01-21T14:41:00.054Z,89.11
2018-01-21T14:42:10.286Z,88.54
2018-01-21T14:43:20.502Z,89.01
2018-01-21T14:44:30.746Z,88.63
2018-01-21T14:45:40.919Z,88.63
2018-01-21T14:46:51.119Z,89.11
2018-01-21T14:48:01.401Z,89.11
2018-01-21T14:49:11.645Z,88.82
2018-01-21T14:50:21.584Z,89.01
2018-01-21T14:51:31.600Z,88.92
2018-01-21T14:52:41.865Z,88.92
2018-01-21T14:53:52.036Z,88.35
2018-01-21T14:55:02.240Z,87.87
2018-01-21T14:56:12.476Z,88.06
2018-01-21T14:57:22.647Z,88.92
2018-01-21T14:58:33.315Z,88.73
2018-01-21T14:59:43.568Z,88.73
2018-01-21T15:00:53.890Z,88.92
2018-01-21T15:02:04.105Z,88.54
2018-01-21T15:03:14.638Z,88.92
2018-01-21T15:04:24.968Z,88.63
2018-01-21T15:05:35.280Z,88.63
2018-01-21T15:06:45.528Z,88.63